sensor_id;sensor_type;location;lat;lon;timestamp;P1;P2;P0
47079;PMS5003;33067;49.296;14.470;2023-07-13T00:01:10;12;11;
47079;PMS5003;33067;49.296;14.470;2023-07-13T00:03:35;12;12;
47079;PMS5003;33067;49.296;14.470;2023-07-13T00:06:01;14;14;
47079;PMS5003;33067;49.296;14.470;2023-07-13T00:08:29;13;13;
47079;PMS5003;33067;49.296;14.470;2023-07-13T00:10:52;16;13;
47079;PMS5003;33067;49.296;14.470;2023-07-13T00:13:18;15;14;
47079;PMS5003;33067;49.296;14.470;2023-07-13T00:15:45;14;14;
47079;PMS5003;33067;49.296;14.470;2023-07-13T00:18:09;20;20;
47079;PMS5003;33067;49.296;14.470;2023-07-13T00:20:34;12;12;
47079;PMS5003;33067;49.296;14.470;2023-07-13T00:23:00;14;14;
47079;PMS5003;33067;49.296;14.470;2023-07-13T00:25:25;15;15;
47079;PMS5003;33067;49.296;14.470;2023-07-13T00:27:51;15;15;
47079;PMS5003;33067;49.296;14.470;2023-07-13T00:30:17;15;14;
47079;PMS5003;33067;49.296;14.470;2023-07-13T00:32:43;13;13;
47079;PMS5003;33067;49.296;14.470;2023-07-13T00:35:09;13;12;
47079;PMS5003;33067;49.296;14.470;2023-07-13T00:37:34;15;15;
47079;PMS5003;33067;49.296;14.470;2023-07-13T00:40:00;13;13;
47079;PMS5003;33067;49.296;14.470;2023-07-13T00:42:26;14;14;
47079;PMS5003;33067;49.296;14.470;2023-07-13T00:47:17;13;13;
47079;PMS5003;33067;49.296;14.470;2023-07-13T00:49:42;17;17;
47079;PMS5003;33067;49.296;14.470;2023-07-13T00:52:08;14;14;
47079;PMS5003;33067;49.296;14.470;2023-07-13T00:54:36;15;15;
47079;PMS5003;33067;49.296;14.470;2023-07-13T00:57:00;17;17;
47079;PMS5003;33067;49.296;14.470;2023-07-13T00:59:25;16;15;
47079;PMS5003;33067;49.296;14.470;2023-07-13T01:01:51;11;11;
47079;PMS5003;33067;49.296;14.470;2023-07-13T01:04:18;15;15;
47079;PMS5003;33067;49.296;14.470;2023-07-13T01:06:43;16;16;
47079;PMS5003;33067;49.296;14.470;2023-07-13T01:09:08;14;14;
47079;PMS5003;33067;49.296;14.470;2023-07-13T01:11:34;13;13;
47079;PMS5003;33067;49.296;14.470;2023-07-13T01:13:59;20;20;
47079;PMS5003;33067;49.296;14.470;2023-07-13T01:16:27;18;18;
47079;PMS5003;33067;49.296;14.470;2023-07-13T01:18:50;19;19;
47079;PMS5003;33067;49.296;14.470;2023-07-13T01:21:16;19;17;
47079;PMS5003;33067;49.296;14.470;2023-07-13T01:23:42;23;21;
47079;PMS5003;33067;49.296;14.470;2023-07-13T01:26:07;18;17;
47079;PMS5003;33067;49.296;14.470;2023-07-13T01:28:34;22;19;
47079;PMS5003;33067;49.296;14.470;2023-07-13T01:30:59;21;19;
47079;PMS5003;33067;49.296;14.470;2023-07-13T01:33:24;17;17;
47079;PMS5003;33067;49.296;14.470;2023-07-13T01:35:50;17;15;
47079;PMS5003;33067;49.296;14.470;2023-07-13T01:38:17;18;18;
47079;PMS5003;33067;49.296;14.470;2023-07-13T01:40:42;14;14;
47079;PMS5003;33067;49.296;14.470;2023-07-13T01:43:07;15;15;
47079;PMS5003;33067;49.296;14.470;2023-07-13T01:45:33;13;13;
47079;PMS5003;33067;49.296;14.470;2023-07-13T01:47:58;16;15;
47079;PMS5003;33067;49.296;14.470;2023-07-13T01:50:25;16;13;
47079;PMS5003;33067;49.296;14.470;2023-07-13T01:52:50;13;13;
47079;PMS5003;33067;49.296;14.470;2023-07-13T01:55:16;13;13;
47079;PMS5003;33067;49.296;14.470;2023-07-13T01:57:41;16;16;
47079;PMS5003;33067;49.296;14.470;2023-07-13T02:00:09;18;17;
47079;PMS5003;33067;49.296;14.470;2023-07-13T02:02:33;15;15;
47079;PMS5003;33067;49.296;14.470;2023-07-13T02:04:59;19;18;
47079;PMS5003;33067;49.296;14.470;2023-07-13T02:07:25;18;17;
47079;PMS5003;33067;49.296;14.470;2023-07-13T02:09:50;17;17;
47079;PMS5003;33067;49.296;14.470;2023-07-13T02:12:58;14;14;
47079;PMS5003;33067;49.296;14.470;2023-07-13T02:15:23;22;20;
47079;PMS5003;33067;49.296;14.470;2023-07-13T02:17:50;13;12;
47079;PMS5003;33067;49.296;14.470;2023-07-13T02:20:14;15;14;
47079;PMS5003;33067;49.296;14.470;2023-07-13T02:22:40;19;19;
47079;PMS5003;33067;49.296;14.470;2023-07-13T02:25:06;13;13;
47079;PMS5003;33067;49.296;14.470;2023-07-13T02:27:31;15;15;
47079;PMS5003;33067;49.296;14.470;2023-07-13T02:29:58;14;14;
47079;PMS5003;33067;49.296;14.470;2023-07-13T02:32:23;15;14;
47079;PMS5003;33067;49.296;14.470;2023-07-13T02:34:48;15;14;
47079;PMS5003;33067;49.296;14.470;2023-07-13T02:37:15;14;14;
47079;PMS5003;33067;49.296;14.470;2023-07-13T02:39:39;17;16;
47079;PMS5003;33067;49.296;14.470;2023-07-13T02:42:05;17;16;
47079;PMS5003;33067;49.296;14.470;2023-07-13T02:44:31;14;14;
47079;PMS5003;33067;49.296;14.470;2023-07-13T02:46:58;16;15;
47079;PMS5003;33067;49.296;14.470;2023-07-13T02:49:22;15;15;
47079;PMS5003;33067;49.296;14.470;2023-07-13T02:51:48;14;14;
47079;PMS5003;33067;49.296;14.470;2023-07-13T02:54:14;16;16;
47079;PMS5003;33067;49.296;14.470;2023-07-13T02:56:39;19;16;
47079;PMS5003;33067;49.296;14.470;2023-07-13T02:59:05;15;15;
47079;PMS5003;33067;49.296;14.470;2023-07-13T03:01:31;17;17;
47079;PMS5003;33067;49.296;14.470;2023-07-13T03:03:59;14;13;
47079;PMS5003;33067;49.296;14.470;2023-07-13T03:06:22;14;14;
47079;PMS5003;33067;49.296;14.470;2023-07-13T03:08:48;17;16;
47079;PMS5003;33067;49.296;14.470;2023-07-13T03:11:17;13;13;
47079;PMS5003;33067;49.296;14.470;2023-07-13T03:13:40;11;11;
47079;PMS5003;33067;49.296;14.470;2023-07-13T03:16:06;13;13;
47079;PMS5003;33067;49.296;14.470;2023-07-13T03:18:31;20;18;
47079;PMS5003;33067;49.296;14.470;2023-07-13T03:20:58;13;13;
47079;PMS5003;33067;49.296;14.470;2023-07-13T03:23:24;11;11;
47079;PMS5003;33067;49.296;14.470;2023-07-13T03:25:48;13;12;
47079;PMS5003;33067;49.296;14.470;2023-07-13T03:28:14;12;11;
47079;PMS5003;33067;49.296;14.470;2023-07-13T03:30:41;12;11;
47079;PMS5003;33067;49.296;14.470;2023-07-13T03:33:05;13;12;
47079;PMS5003;33067;49.296;14.470;2023-07-13T03:35:31;12;12;
47079;PMS5003;33067;49.296;14.470;2023-07-13T03:37:57;11;10;
47079;PMS5003;33067;49.296;14.470;2023-07-13T03:40:22;14;14;
47079;PMS5003;33067;49.296;14.470;2023-07-13T03:42:50;17;15;
47079;PMS5003;33067;49.296;14.470;2023-07-13T03:45:13;18;16;
47079;PMS5003;33067;49.296;14.470;2023-07-13T03:47:39;11;11;
47079;PMS5003;33067;49.296;14.470;2023-07-13T03:50:05;13;13;
47079;PMS5003;33067;49.296;14.470;2023-07-13T03:52:30;13;12;
47079;PMS5003;33067;49.296;14.470;2023-07-13T03:54:56;14;12;
47079;PMS5003;33067;49.296;14.470;2023-07-13T03:57:22;14;14;
47079;PMS5003;33067;49.296;14.470;2023-07-13T03:59:48;12;12;
47079;PMS5003;33067;49.296;14.470;2023-07-13T04:02:14;15;15;
47079;PMS5003;33067;49.296;14.470;2023-07-13T04:04:39;14;13;
47079;PMS5003;33067;49.296;14.470;2023-07-13T04:07:05;11;11;
47079;PMS5003;33067;49.296;14.470;2023-07-13T04:09:31;13;11;
47079;PMS5003;33067;49.296;14.470;2023-07-13T04:11:57;14;14;
47079;PMS5003;33067;49.296;14.470;2023-07-13T04:14:22;14;13;
47079;PMS5003;33067;49.296;14.470;2023-07-13T04:16:47;16;14;
47079;PMS5003;33067;49.296;14.470;2023-07-13T04:19:13;17;17;
47079;PMS5003;33067;49.296;14.470;2023-07-13T04:21:39;14;14;
47079;PMS5003;33067;49.296;14.470;2023-07-13T04:24:05;15;15;
47079;PMS5003;33067;49.296;14.470;2023-07-13T04:26:30;13;12;
47079;PMS5003;33067;49.296;14.470;2023-07-13T04:28:56;9;9;
47079;PMS5003;33067;49.296;14.470;2023-07-13T04:31:22;15;13;
47079;PMS5003;33067;49.296;14.470;2023-07-13T04:33:48;10;10;
47079;PMS5003;33067;49.296;14.470;2023-07-13T04:36:14;10;9;
47079;PMS5003;33067;49.296;14.470;2023-07-13T04:38:39;13;13;
47079;PMS5003;33067;49.296;14.470;2023-07-13T04:41:05;21;21;
47079;PMS5003;33067;49.296;14.470;2023-07-13T04:43:31;14;14;
47079;PMS5003;33067;49.296;14.470;2023-07-13T04:45:56;11;11;
47079;PMS5003;33067;49.296;14.470;2023-07-13T04:48:22;11;11;
47079;PMS5003;33067;49.296;14.470;2023-07-13T04:50:48;12;12;
47079;PMS5003;33067;49.296;14.470;2023-07-13T04:53:13;12;11;
47079;PMS5003;33067;49.296;14.470;2023-07-13T04:55:39;13;13;
47079;PMS5003;33067;49.296;14.470;2023-07-13T04:58:05;9;9;
47079;PMS5003;33067;49.296;14.470;2023-07-13T05:00:31;12;10;
47079;PMS5003;33067;49.296;14.470;2023-07-13T05:02:57;14;13;
47079;PMS5003;33067;49.296;14.470;2023-07-13T05:05:22;13;13;
47079;PMS5003;33067;49.296;14.470;2023-07-13T05:07:48;13;12;
47079;PMS5003;33067;49.296;14.470;2023-07-13T05:10:13;15;12;
47079;PMS5003;33067;49.296;14.470;2023-07-13T05:12:39;12;11;
47079;PMS5003;33067;49.296;14.470;2023-07-13T05:15:05;11;11;
47079;PMS5003;33067;49.296;14.470;2023-07-13T05:17:30;15;15;
47079;PMS5003;33067;49.296;14.470;2023-07-13T05:19:56;19;19;
47079;PMS5003;33067;49.296;14.470;2023-07-13T05:22:22;13;13;
47079;PMS5003;33067;49.296;14.470;2023-07-13T05:24:50;13;13;
47079;PMS5003;33067;49.296;14.470;2023-07-13T05:27:13;14;14;
47079;PMS5003;33067;49.296;14.470;2023-07-13T05:29:38;17;17;
47079;PMS5003;33067;49.296;14.470;2023-07-13T05:32:04;11;11;
47079;PMS5003;33067;49.296;14.470;2023-07-13T05:34:29;12;12;
47079;PMS5003;33067;49.296;14.470;2023-07-13T05:36:55;16;16;
47079;PMS5003;33067;49.296;14.470;2023-07-13T05:39:21;18;17;
47079;PMS5003;33067;49.296;14.470;2023-07-13T05:41:46;25;25;
47079;PMS5003;33067;49.296;14.470;2023-07-13T05:44:12;13;13;
47079;PMS5003;33067;49.296;14.470;2023-07-13T05:46:37;19;17;
47079;PMS5003;33067;49.296;14.470;2023-07-13T05:49:03;23;22;
47079;PMS5003;33067;49.296;14.470;2023-07-13T05:51:28;27;26;
47079;PMS5003;33067;49.296;14.470;2023-07-13T05:53:53;20;20;
47079;PMS5003;33067;49.296;14.470;2023-07-13T05:56:19;76;68;
47079;PMS5003;33067;49.296;14.470;2023-07-13T05:58:44;77;66;
47079;PMS5003;33067;49.296;14.470;2023-07-13T06:01:11;40;38;
47079;PMS5003;33067;49.296;14.470;2023-07-13T06:03:35;22;19;
47079;PMS5003;33067;49.296;14.470;2023-07-13T06:06:01;18;17;
47079;PMS5003;33067;49.296;14.470;2023-07-13T06:08:27;15;13;
47079;PMS5003;33067;49.296;14.470;2023-07-13T06:10:53;16;13;
47079;PMS5003;33067;49.296;14.470;2023-07-13T06:13:18;9;8;
47079;PMS5003;33067;49.296;14.470;2023-07-13T06:15:44;11;9;
47079;PMS5003;33067;49.296;14.470;2023-07-13T06:18:09;9;9;
47079;PMS5003;33067;49.296;14.470;2023-07-13T06:20:35;11;11;
47079;PMS5003;33067;49.296;14.470;2023-07-13T06:23:01;8;8;
47079;PMS5003;33067;49.296;14.470;2023-07-13T06:25:26;7;7;
47079;PMS5003;33067;49.296;14.470;2023-07-13T06:27:52;11;9;
47079;PMS5003;33067;49.296;14.470;2023-07-13T06:30:18;8;8;
47079;PMS5003;33067;49.296;14.470;2023-07-13T06:32:43;11;10;
47079;PMS5003;33067;49.296;14.470;2023-07-13T06:35:09;7;7;
47079;PMS5003;33067;49.296;14.470;2023-07-13T06:37:35;9;9;
47079;PMS5003;33067;49.296;14.470;2023-07-13T06:40:01;10;10;
47079;PMS5003;33067;49.296;14.470;2023-07-13T06:42:26;9;9;
47079;PMS5003;33067;49.296;14.470;2023-07-13T06:44:52;10;10;
47079;PMS5003;33067;49.296;14.470;2023-07-13T06:47:18;18;16;
47079;PMS5003;33067;49.296;14.470;2023-07-13T06:49:43;15;14;
47079;PMS5003;33067;49.296;14.470;2023-07-13T06:52:09;9;8;
47079;PMS5003;33067;49.296;14.470;2023-07-13T06:54:34;6;6;
47079;PMS5003;33067;49.296;14.470;2023-07-13T06:57:00;8;8;
47079;PMS5003;33067;49.296;14.470;2023-07-13T06:59:26;10;9;
47079;PMS5003;33067;49.296;14.470;2023-07-13T07:01:51;7;7;
47079;PMS5003;33067;49.296;14.470;2023-07-13T07:04:17;5;5;
47079;PMS5003;33067;49.296;14.470;2023-07-13T07:06:43;6;6;
47079;PMS5003;33067;49.296;14.470;2023-07-13T07:09:09;8;8;
47079;PMS5003;33067;49.296;14.470;2023-07-13T07:11:34;5;5;
47079;PMS5003;33067;49.296;14.470;2023-07-13T07:14:00;4;4;
47079;PMS5003;33067;49.296;14.470;2023-07-13T07:16:25;9;9;
47079;PMS5003;33067;49.296;14.470;2023-07-13T07:18:51;9;9;
47079;PMS5003;33067;49.296;14.470;2023-07-13T07:21:17;6;6;
47079;PMS5003;33067;49.296;14.470;2023-07-13T07:23:48;9;9;
47079;PMS5003;33067;49.296;14.470;2023-07-13T07:26:08;6;6;
47079;PMS5003;33067;49.296;14.470;2023-07-13T07:28:34;8;7;
47079;PMS5003;33067;49.296;14.470;2023-07-13T07:30:59;7;7;
47079;PMS5003;33067;49.296;14.470;2023-07-13T07:33:25;6;6;
47079;PMS5003;33067;49.296;14.470;2023-07-13T07:35:51;5;5;
47079;PMS5003;33067;49.296;14.470;2023-07-13T07:38:17;7;7;
47079;PMS5003;33067;49.296;14.470;2023-07-13T07:40:42;7;7;
47079;PMS5003;33067;49.296;14.470;2023-07-13T07:43:08;7;7;
47079;PMS5003;33067;49.296;14.470;2023-07-13T07:45:33;10;10;
47079;PMS5003;33067;49.296;14.470;2023-07-13T07:47:59;7;7;
47079;PMS5003;33067;49.296;14.470;2023-07-13T07:50:25;7;7;
47079;PMS5003;33067;49.296;14.470;2023-07-13T07:52:50;16;15;
47079;PMS5003;33067;49.296;14.470;2023-07-13T07:55:16;7;7;
47079;PMS5003;33067;49.296;14.470;2023-07-13T07:57:41;9;9;
47079;PMS5003;33067;49.296;14.470;2023-07-13T08:00:07;6;6;
47079;PMS5003;33067;49.296;14.470;2023-07-13T08:02:33;9;9;
47079;PMS5003;33067;49.296;14.470;2023-07-13T08:04:58;7;7;
47079;PMS5003;33067;49.296;14.470;2023-07-13T08:07:24;7;7;
47079;PMS5003;33067;49.296;14.470;2023-07-13T08:09:52;5;5;
47079;PMS5003;33067;49.296;14.470;2023-07-13T08:12:15;4;4;
47079;PMS5003;33067;49.296;14.470;2023-07-13T08:14:41;6;6;
47079;PMS5003;33067;49.296;14.470;2023-07-13T08:17:07;5;5;
47079;PMS5003;33067;49.296;14.470;2023-07-13T08:19:32;4;4;
47079;PMS5003;33067;49.296;14.470;2023-07-13T08:21:58;6;6;
47079;PMS5003;33067;49.296;14.470;2023-07-13T08:24:24;6;6;
47079;PMS5003;33067;49.296;14.470;2023-07-13T08:26:50;4;4;
47079;PMS5003;33067;49.296;14.470;2023-07-13T08:29:15;4;4;
47079;PMS5003;33067;49.296;14.470;2023-07-13T08:31:41;5;5;
47079;PMS5003;33067;49.296;14.470;2023-07-13T08:34:06;5;5;
47079;PMS5003;33067;49.296;14.470;2023-07-13T08:36:32;10;10;
47079;PMS5003;33067;49.296;14.470;2023-07-13T08:38:58;5;5;
47079;PMS5003;33067;49.296;14.470;2023-07-13T08:41:23;5;5;
47079;PMS5003;33067;49.296;14.470;2023-07-13T08:43:50;6;6;
47079;PMS5003;33067;49.296;14.470;2023-07-13T08:46:16;5;4;
47079;PMS5003;33067;49.296;14.470;2023-07-13T08:48:41;10;10;
47079;PMS5003;33067;49.296;14.470;2023-07-13T08:51:09;9;9;
47079;PMS5003;33067;49.296;14.470;2023-07-13T08:53:33;16;15;
47079;PMS5003;33067;49.296;14.470;2023-07-13T08:55:58;6;6;
47079;PMS5003;33067;49.296;14.470;2023-07-13T08:58:23;5;5;
47079;PMS5003;33067;49.296;14.470;2023-07-13T09:00:51;5;5;
47079;PMS5003;33067;49.296;14.470;2023-07-13T09:03:18;8;7;
47079;PMS5003;33067;49.296;14.470;2023-07-13T09:05:40;4;4;
47079;PMS5003;33067;49.296;14.470;2023-07-13T09:08:10;7;7;
47079;PMS5003;33067;49.296;14.470;2023-07-13T09:10:32;6;5;
47079;PMS5003;33067;49.296;14.470;2023-07-13T09:13:00;4;4;
47079;PMS5003;33067;49.296;14.470;2023-07-13T09:15:24;6;6;
47079;PMS5003;33067;49.296;14.470;2023-07-13T09:17:49;5;5;
47079;PMS5003;33067;49.296;14.470;2023-07-13T09:20:16;4;4;
47079;PMS5003;33067;49.296;14.470;2023-07-13T09:22:39;5;5;
47079;PMS5003;33067;49.296;14.470;2023-07-13T09:25:06;2;2;
47079;PMS5003;33067;49.296;14.470;2023-07-13T09:27:33;5;3;
47079;PMS5003;33067;49.296;14.470;2023-07-13T09:29:58;5;5;
47079;PMS5003;33067;49.296;14.470;2023-07-13T09:32:22;3;3;
47079;PMS5003;33067;49.296;14.470;2023-07-13T09:34:51;5;4;
47079;PMS5003;33067;49.296;14.470;2023-07-13T09:37:13;5;5;
47079;PMS5003;33067;49.296;14.470;2023-07-13T09:39:39;7;6;
47079;PMS5003;33067;49.296;14.470;2023-07-13T09:42:07;3;3;
47079;PMS5003;33067;49.296;14.470;2023-07-13T09:44:30;4;4;
47079;PMS5003;33067;49.296;14.470;2023-07-13T09:46:55;3;3;
47079;PMS5003;33067;49.296;14.470;2023-07-13T09:49:23;4;4;
47079;PMS5003;33067;49.296;14.470;2023-07-13T09:51:47;3;3;
47079;PMS5003;33067;49.296;14.470;2023-07-13T09:54:18;4;4;
47079;PMS5003;33067;49.296;14.470;2023-07-13T09:56:38;4;4;
47079;PMS5003;33067;49.296;14.470;2023-07-13T09:59:03;2;2;
47079;PMS5003;33067;49.296;14.470;2023-07-13T10:01:33;3;3;
47079;PMS5003;33067;49.296;14.470;2023-07-13T10:03:55;4;4;
47079;PMS5003;33067;49.296;14.470;2023-07-13T10:06:21;3;3;
47079;PMS5003;33067;49.296;14.470;2023-07-13T10:08:46;5;4;
47079;PMS5003;33067;49.296;14.470;2023-07-13T10:11:14;3;3;
47079;PMS5003;33067;49.296;14.470;2023-07-13T10:13:39;4;4;
47079;PMS5003;33067;49.296;14.470;2023-07-13T10:16:03;4;4;
47079;PMS5003;33067;49.296;14.470;2023-07-13T10:18:29;4;4;
47079;PMS5003;33067;49.296;14.470;2023-07-13T10:20:54;3;3;
47079;PMS5003;33067;49.296;14.470;2023-07-13T10:23:20;4;4;
47079;PMS5003;33067;49.296;14.470;2023-07-13T10:25:45;4;4;
47079;PMS5003;33067;49.296;14.470;2023-07-13T10:28:22;3;3;
47079;PMS5003;33067;49.296;14.470;2023-07-13T10:30:38;3;3;
47079;PMS5003;33067;49.296;14.470;2023-07-13T10:33:02;3;3;
47079;PMS5003;33067;49.296;14.470;2023-07-13T10:35:29;2;2;
47079;PMS5003;33067;49.296;14.470;2023-07-13T10:37:55;4;4;
47079;PMS5003;33067;49.296;14.470;2023-07-13T10:40:19;2;2;
47079;PMS5003;33067;49.296;14.470;2023-07-13T10:42:45;3;3;
47079;PMS5003;33067;49.296;14.470;2023-07-13T10:45:13;3;3;
47079;PMS5003;33067;49.296;14.470;2023-07-13T10:47:36;3;3;
47079;PMS5003;33067;49.296;14.470;2023-07-13T10:50:01;3;2;
47079;PMS5003;33067;49.296;14.470;2023-07-13T10:54:52;3;3;
47079;PMS5003;33067;49.296;14.470;2023-07-13T10:57:19;4;4;
47079;PMS5003;33067;49.296;14.470;2023-07-13T10:59:45;3;3;
47079;PMS5003;33067;49.296;14.470;2023-07-13T11:02:11;3;3;
47079;PMS5003;33067;49.296;14.470;2023-07-13T11:04:39;2;2;
47079;PMS5003;33067;49.296;14.470;2023-07-13T11:07:00;3;3;
47079;PMS5003;33067;49.296;14.470;2023-07-13T11:09:33;5;5;
47079;PMS5003;33067;49.296;14.470;2023-07-13T11:11:52;4;4;
47079;PMS5003;33067;49.296;14.470;2023-07-13T11:14:27;2;2;
47079;PMS5003;33067;49.296;14.470;2023-07-13T11:16:44;3;3;
47079;PMS5003;33067;49.296;14.470;2023-07-13T11:21:34;4;4;
47079;PMS5003;33067;49.296;14.470;2023-07-13T11:24:02;5;4;
47079;PMS5003;33067;49.296;14.470;2023-07-13T11:28:51;5;5;
47079;PMS5003;33067;49.296;14.470;2023-07-13T11:31:17;5;5;
47079;PMS5003;33067;49.296;14.470;2023-07-13T11:36:12;5;5;
47079;PMS5003;33067;49.296;14.470;2023-07-13T11:38:35;3;3;
47079;PMS5003;33067;49.296;14.470;2023-07-13T11:41:00;4;4;
47079;PMS5003;33067;49.296;14.470;2023-07-13T11:43:25;6;5;
47079;PMS5003;33067;49.296;14.470;2023-07-13T11:45:50;5;5;
47079;PMS5003;33067;49.296;14.470;2023-07-13T11:48:18;3;3;
47079;PMS5003;33067;49.296;14.470;2023-07-13T11:50:42;6;6;
47079;PMS5003;33067;49.296;14.470;2023-07-13T11:53:08;4;4;
47079;PMS5003;33067;49.296;14.470;2023-07-13T11:55:33;6;4;
47079;PMS5003;33067;49.296;14.470;2023-07-13T11:57:59;4;4;
47079;PMS5003;33067;49.296;14.470;2023-07-13T12:00:26;4;4;
47079;PMS5003;33067;49.296;14.470;2023-07-13T12:02:51;5;5;
47079;PMS5003;33067;49.296;14.470;2023-07-13T12:05:16;3;3;
47079;PMS5003;33067;49.296;14.470;2023-07-13T12:07:41;5;5;
47079;PMS5003;33067;49.296;14.470;2023-07-13T12:10:15;3;3;
47079;PMS5003;33067;49.296;14.470;2023-07-13T12:12:32;4;4;
47079;PMS5003;33067;49.296;14.470;2023-07-13T12:14:58;4;4;
47079;PMS5003;33067;49.296;14.470;2023-07-13T12:17:24;3;3;
47079;PMS5003;33067;49.296;14.470;2023-07-13T12:19:50;6;5;
47079;PMS5003;33067;49.296;14.470;2023-07-13T12:22:15;4;4;
47079;PMS5003;33067;49.296;14.470;2023-07-13T12:24:41;3;2;
47079;PMS5003;33067;49.296;14.470;2023-07-13T12:27:06;4;4;
47079;PMS5003;33067;49.296;14.470;2023-07-13T12:29:32;5;4;
47079;PMS5003;33067;49.296;14.470;2023-07-13T12:31:58;4;4;
47079;PMS5003;33067;49.296;14.470;2023-07-13T12:34:24;5;5;
47079;PMS5003;33067;49.296;14.470;2023-07-13T12:36:49;5;5;
47079;PMS5003;33067;49.296;14.470;2023-07-13T12:39:15;5;5;
47079;PMS5003;33067;49.296;14.470;2023-07-13T12:41:40;5;5;
47079;PMS5003;33067;49.296;14.470;2023-07-13T12:44:08;4;4;
47079;PMS5003;33067;49.296;14.470;2023-07-13T12:46:31;7;7;
47079;PMS5003;33067;49.296;14.470;2023-07-13T12:48:57;5;5;
47079;PMS5003;33067;49.296;14.470;2023-07-13T12:51:22;5;5;
47079;PMS5003;33067;49.296;14.470;2023-07-13T12:53:50;5;5;
47079;PMS5003;33067;49.296;14.470;2023-07-13T12:56:16;6;5;
47079;PMS5003;33067;49.296;14.470;2023-07-13T12:58:39;5;4;
47079;PMS5003;33067;49.296;14.470;2023-07-13T13:01:05;4;4;
47079;PMS5003;33067;49.296;14.470;2023-07-13T13:03:31;5;5;
47079;PMS5003;33067;49.296;14.470;2023-07-13T13:05:57;5;5;
47079;PMS5003;33067;49.296;14.470;2023-07-13T13:08:22;6;6;
47079;PMS5003;33067;49.296;14.470;2023-07-13T13:14:02;1;1;
47079;PMS5003;33067;49.296;14.470;2023-07-13T13:16:30;6;6;
47079;PMS5003;33067;49.296;14.470;2023-07-13T13:18:54;5;5;
47079;PMS5003;33067;49.296;14.470;2023-07-13T13:21:19;3;3;
47079;PMS5003;33067;49.296;14.470;2023-07-13T13:23:45;9;8;
47079;PMS5003;33067;49.296;14.470;2023-07-13T13:26:10;4;4;
47079;PMS5003;33067;49.296;14.470;2023-07-13T13:28:36;5;5;
47079;PMS5003;33067;49.296;14.470;2023-07-13T13:31:01;6;6;
47079;PMS5003;33067;49.296;14.470;2023-07-13T13:33:27;6;6;
47079;PMS5003;33067;49.296;14.470;2023-07-13T13:35:53;5;5;
47079;PMS5003;33067;49.296;14.470;2023-07-13T13:38:20;5;5;
47079;PMS5003;33067;49.296;14.470;2023-07-13T13:40:44;3;3;
47079;PMS5003;33067;49.296;14.470;2023-07-13T13:43:14;5;5;
47079;PMS5003;33067;49.296;14.470;2023-07-13T13:45:36;4;4;
47079;PMS5003;33067;49.296;14.470;2023-07-13T13:48:01;6;6;
47079;PMS5003;33067;49.296;14.470;2023-07-13T13:50:28;5;5;
47079;PMS5003;33067;49.296;14.470;2023-07-13T13:52:52;5;5;
47079;PMS5003;33067;49.296;14.470;2023-07-13T13:55:19;4;4;
47079;PMS5003;33067;49.296;14.470;2023-07-13T13:57:44;5;5;
47079;PMS5003;33067;49.296;14.470;2023-07-13T14:00:10;5;5;
47079;PMS5003;33067;49.296;14.470;2023-07-13T14:02:35;3;3;
47079;PMS5003;33067;49.296;14.470;2023-07-13T14:05:01;6;6;
47079;PMS5003;33067;49.296;14.470;2023-07-13T14:07:26;4;4;
47079;PMS5003;33067;49.296;14.470;2023-07-13T14:09:52;5;5;
47079;PMS5003;33067;49.296;14.470;2023-07-13T14:12:17;3;3;
47079;PMS5003;33067;49.296;14.470;2023-07-13T14:14:43;7;7;
47079;PMS5003;33067;49.296;14.470;2023-07-13T14:17:12;6;6;
47079;PMS5003;33067;49.296;14.470;2023-07-13T14:19:34;5;5;
47079;PMS5003;33067;49.296;14.470;2023-07-13T14:22:00;4;2;
47079;PMS5003;33067;49.296;14.470;2023-07-13T14:24:25;1;1;
47079;PMS5003;33067;49.296;14.470;2023-07-13T14:26:51;4;3;
47079;PMS5003;33067;49.296;14.470;2023-07-13T14:29:17;3;3;
47079;PMS5003;33067;49.296;14.470;2023-07-13T14:31:42;4;4;
47079;PMS5003;33067;49.296;14.470;2023-07-13T14:34:08;3;3;
47079;PMS5003;33067;49.296;14.470;2023-07-13T14:36:34;4;4;
47079;PMS5003;33067;49.296;14.470;2023-07-13T14:39:00;4;4;
47079;PMS5003;33067;49.296;14.470;2023-07-13T14:41:25;4;4;
47079;PMS5003;33067;49.296;14.470;2023-07-13T14:43:50;4;4;
47079;PMS5003;33067;49.296;14.470;2023-07-13T14:46:20;4;4;
47079;PMS5003;33067;49.296;14.470;2023-07-13T14:48:42;5;5;
47079;PMS5003;33067;49.296;14.470;2023-07-13T14:51:07;4;4;
47079;PMS5003;33067;49.296;14.470;2023-07-13T14:53:33;4;4;
47079;PMS5003;33067;49.296;14.470;2023-07-13T14:55:59;5;5;
47079;PMS5003;33067;49.296;14.470;2023-07-13T14:58:24;6;5;
47079;PMS5003;33067;49.296;14.470;2023-07-13T15:00:50;3;3;
47079;PMS5003;33067;49.296;14.470;2023-07-13T15:03:17;5;4;
47079;PMS5003;33067;49.296;14.470;2023-07-13T15:05:41;6;6;
47079;PMS5003;33067;49.296;14.470;2023-07-13T15:08:07;6;6;
47079;PMS5003;33067;49.296;14.470;2023-07-13T15:10:33;7;7;
47079;PMS5003;33067;49.296;14.470;2023-07-13T15:12:59;6;6;
47079;PMS5003;33067;49.296;14.470;2023-07-13T15:15:24;8;8;
47079;PMS5003;33067;49.296;14.470;2023-07-13T15:17:50;10;10;
47079;PMS5003;33067;49.296;14.470;2023-07-13T15:20:17;9;9;
47079;PMS5003;33067;49.296;14.470;2023-07-13T15:22:41;7;7;
47079;PMS5003;33067;49.296;14.470;2023-07-13T15:25:10;10;10;
47079;PMS5003;33067;49.296;14.470;2023-07-13T15:27:32;14;14;
47079;PMS5003;33067;49.296;14.470;2023-07-13T15:29:58;9;9;
47079;PMS5003;33067;49.296;14.470;2023-07-13T15:32:24;8;8;
47079;PMS5003;33067;49.296;14.470;2023-07-13T15:34:49;8;8;
47079;PMS5003;33067;49.296;14.470;2023-07-13T15:37:15;11;11;
47079;PMS5003;33067;49.296;14.470;2023-07-13T15:39:41;6;6;
47079;PMS5003;33067;49.296;14.470;2023-07-13T15:42:07;6;6;
47079;PMS5003;33067;49.296;14.470;2023-07-13T15:44:32;5;5;
47079;PMS5003;33067;49.296;14.470;2023-07-13T15:46:58;7;6;
47079;PMS5003;33067;49.296;14.470;2023-07-13T15:49:23;7;7;
47079;PMS5003;33067;49.296;14.470;2023-07-13T15:51:49;6;6;
47079;PMS5003;33067;49.296;14.470;2023-07-13T15:54:16;6;6;
47079;PMS5003;33067;49.296;14.470;2023-07-13T15:56:40;6;6;
47079;PMS5003;33067;49.296;14.470;2023-07-13T15:59:07;8;7;
47079;PMS5003;33067;49.296;14.470;2023-07-13T16:01:32;5;5;
47079;PMS5003;33067;49.296;14.470;2023-07-13T16:03:57;7;7;
47079;PMS5003;33067;49.296;14.470;2023-07-13T16:06:25;6;6;
47079;PMS5003;33067;49.296;14.470;2023-07-13T16:08:49;7;7;
47079;PMS5003;33067;49.296;14.470;2023-07-13T16:11:16;6;6;
47079;PMS5003;33067;49.296;14.470;2023-07-13T16:13:40;6;6;
47079;PMS5003;33067;49.296;14.470;2023-07-13T16:16:08;5;5;
47079;PMS5003;33067;49.296;14.470;2023-07-13T16:18:31;4;4;
47079;PMS5003;33067;49.296;14.470;2023-07-13T16:20:59;4;4;
47079;PMS5003;33067;49.296;14.470;2023-07-13T16:23:23;4;4;
47079;PMS5003;33067;49.296;14.470;2023-07-13T16:25:49;3;3;